Details From SCCI - Carlos Ibanez Del Campo Intl
To SAWH - Ushuaia_intl_islas Malvinas
Flight Number -
Tags Generated
Created
Modified
Stats Distance 142 nm / 263 km
Max Altitude 0 ft / 0 m
Waypoints 2
Social Downloads 0
Likes 0
Share VATSIM

Download

Looking for another format? Having issues loading an existing format? Contact us
Advertisement - Login to hide

Notes

Generated

Route

SCCI SAWH

ID Type Via Altitude Latitude Longitude Leg Dist Tot Dist Heading (true) Name
O SCCI APT - 0 ft / 0 m -53.00801˚ -70.85499˚ - 0 nm - -
O SAWH APT - 0 ft / 0 m -54.84420˚ -68.31752˚ 142 nm 142 nm 142° / 140° -

Altitude Profile

Advertisement - Login to hide

SCCI

Details ICAO SCCI (PUQ)
Name Carlos Ibanez del Campo Intl
Region Chile
Timezone America/Santiago (UTC-3.0)
Stats Elevation 139 ft / 42 m (AMSL)
Location -53.002650° -70.853492°
Runways 3
Magnetic Variation 13.210° E

METAR

SCCI 151000Z 27023KT CAVOK 06/02 Q0987 NOSIG

Decode

TAF

TAF SCCI 150455Z 1506/1606 27020G32KT 9999 SCT035 TX11/1518Z TN04/1509Z BECMG 1513/1515 31010KT 9000 -SHRA SCT020 BKN030 TEMPO 1518/1600 VRB03KT 6000 RA BKN020 BECMG 1600/1602 19012KT

Decode

Departure Runways

ID Width Length Bearing (true) Bearing (mag) Surface Threshold Offset Overrun Length
01 148 ft / 45 m 5,509 ft / 1,679 m 15.00° 1.79° Asphalt 0 ft / 0 m 0 ft / 0 m
07 148 ft / 45 m 9,162 ft / 2,793 m 75.02° 61.81° Asphalt 0 ft / 0 m 190 ft / 58 m
12 148 ft / 45 m 7,884 ft / 2,403 m 125.01° 111.80° Asphalt 0 ft / 0 m 190 ft / 58 m
19 148 ft / 45 m 5,509 ft / 1,679 m 195.00° 181.79° Asphalt 0 ft / 0 m 0 ft / 0 m
25 148 ft / 45 m 9,162 ft / 2,793 m 254.98° 241.77° Asphalt 0 ft / 0 m 755 ft / 230 m
30 148 ft / 45 m 7,884 ft / 2,403 m 304.99° 291.78° Asphalt 0 ft / 0 m 190 ft / 58 m

SAWH

Details ICAO SAWH (USH)
Name Ushuaia_Intl_Islas Malvinas
Region Argentina
Timezone America/Argentina/Ushuaia (UTC-3.0)
Stats Elevation 91 ft / 28 m (AMSL)
Location -54.843310° -68.294897°
Runways 1
Magnetic Variation 12.407° E

METAR

SAWH 151000Z 23012KT 9999 VCSH BKN035 SCT100 05/02 Q0985

Decode

TAF

TAF TAF SAWH 150500Z 1506/1606 27015KT 9999 RADZ SCT030 OVC045 TX08/1518Z TN01/1506Z BECMG 1512/1514 23010KT 8000 SHRA SCT020 SCT035TCU OVC050 1601/1603 2399 SCT030 OVC070

Decode

Destination Runways

ID Width Length Bearing (true) Bearing (mag) Surface Threshold Offset Overrun Length
07 148 ft / 45 m 9,531 ft / 2,905 m 86.11° 73.70° Concrete 591 ft / 180 m 295 ft / 90 m
25 148 ft / 45 m 9,531 ft / 2,905 m 266.08° 253.67° Concrete 899 ft / 274 m 98 ft / 30 m

Approach Navaids

Runway Type Ident Frequency Range Bearing (true) Bearing (mag) Slope Elevation
25 Localiser US 111.30 MHz 18 nm / 33 km 266.19° 253.78° - 54 ft / 16 m (AMSL)
25 Glidescope US 111.30 MHz 10 nm / 19 km 266.10° 253.69° 3.50° 91 ft / 28 m (AMSL)
25 DME US 111.30 MHz 18 nm / 33 km - - - 92 ft / 28 m (AMSL)

Popular Alternatives